sensor_id;sensor_type;location;lat;lon;timestamp;P1;durP1;ratioP1;P2;durP2;ratioP2
66342;SDS011;53144;51.524;5.080;2022-11-15T15:10:19;7.93;;;1.53;;
66342;SDS011;53144;51.524;5.080;2022-11-15T15:12:45;5.07;;;1.85;;
66342;SDS011;53144;51.524;5.080;2022-11-15T15:17:54;5.35;;;1.60;;
66342;SDS011;53144;51.524;5.080;2022-11-15T15:22:48;4.55;;;2.45;;
66342;SDS011;53144;51.524;5.080;2022-11-15T15:25:22;4.53;;;2.05;;
66342;SDS011;53144;51.524;5.080;2022-11-15T15:27:56;5.60;;;2.13;;
66342;SDS011;53144;51.524;5.080;2022-11-15T15:30:38;6.45;;;2.40;;
66342;SDS011;53144;51.524;5.080;2022-11-15T15:33:09;2.90;;;1.42;;
66342;SDS011;53144;51.524;5.080;2022-11-15T15:38:01;1.75;;;1.33;;
66342;SDS011;53144;51.524;5.080;2022-11-15T15:40:31;2.08;;;1.73;;
66342;SDS011;53144;51.524;5.080;2022-11-15T15:42:57;2.70;;;1.50;;
66342;SDS011;53144;51.524;5.080;2022-11-15T15:45:34;6.03;;;1.73;;
66342;SDS011;53144;51.524;5.080;2022-11-15T15:48:03;3.78;;;1.77;;
66342;SDS011;53144;51.524;5.080;2022-11-15T15:50:32;5.70;;;1.63;;
66342;SDS011;53144;51.524;5.080;2022-11-15T15:53:02;3.22;;;1.67;;
66342;SDS011;53144;51.524;5.080;2022-11-15T15:55:35;6.80;;;1.95;;
66342;SDS011;53144;51.524;5.080;2022-11-15T15:58:01;4.13;;;1.77;;
66342;SDS011;53144;51.524;5.080;2022-11-15T16:00:30;5.15;;;2.03;;
66342;SDS011;53144;51.524;5.080;2022-11-15T16:03:04;7.28;;;1.83;;
66342;SDS011;53144;51.524;5.080;2022-11-15T16:05:33;8.13;;;2.17;;
66342;SDS011;53144;51.524;5.080;2022-11-15T16:08:01;4.22;;;1.92;;
66342;SDS011;53144;51.524;5.080;2022-11-15T16:12:54;3.05;;;1.65;;
66342;SDS011;53144;51.524;5.080;2022-11-15T16:15:21;5.13;;;2.30;;
66342;SDS011;53144;51.524;5.080;2022-11-15T16:17:51;4.10;;;1.88;;
66342;SDS011;53144;51.524;5.080;2022-11-15T16:20:59;4.93;;;1.77;;
66342;SDS011;53144;51.524;5.080;2022-11-15T16:23:13;4.78;;;2.20;;
66342;SDS011;53144;51.524;5.080;2022-11-15T16:25:48;3.65;;;1.85;;
66342;SDS011;53144;51.524;5.080;2022-11-15T16:28:20;4.68;;;1.98;;
66342;SDS011;53144;51.524;5.080;2022-11-15T16:30:48;9.70;;;2.67;;
66342;SDS011;53144;51.524;5.080;2022-11-15T16:33:14;9.60;;;2.45;;
66342;SDS011;53144;51.524;5.080;2022-11-15T16:38:05;5.53;;;2.60;;
66342;SDS011;53144;51.524;5.080;2022-11-15T16:42:57;5.37;;;2.47;;
66342;SDS011;53144;51.524;5.080;2022-11-15T16:45:24;6.05;;;2.90;;
66342;SDS011;53144;51.524;5.080;2022-11-15T16:50:19;8.20;;;2.92;;
66342;SDS011;53144;51.524;5.080;2022-11-15T16:52:50;5.88;;;3.22;;
66342;SDS011;53144;51.524;5.080;2022-11-15T16:55:17;5.28;;;3.10;;
66342;SDS011;53144;51.524;5.080;2022-11-15T17:00:10;5.05;;;2.70;;
66342;SDS011;53144;51.524;5.080;2022-11-15T17:02:47;7.70;;;2.95;;
66342;SDS011;53144;51.524;5.080;2022-11-15T17:05:14;8.20;;;3.15;;
66342;SDS011;53144;51.524;5.080;2022-11-15T17:07:41;6.43;;;3.20;;
66342;SDS011;53144;51.524;5.080;2022-11-15T17:12:35;6.00;;;2.90;;
66342;SDS011;53144;51.524;5.080;2022-11-15T17:15:02;6.70;;;3.50;;
66342;SDS011;53144;51.524;5.080;2022-11-15T17:17:35;6.82;;;3.45;;
66342;SDS011;53144;51.524;5.080;2022-11-15T17:22:35;5.65;;;2.97;;
66342;SDS011;53144;51.524;5.080;2022-11-15T17:25:09;4.80;;;3.50;;
66342;SDS011;53144;51.524;5.080;2022-11-15T17:27:34;6.05;;;3.28;;
66342;SDS011;53144;51.524;5.080;2022-11-15T17:30:23;6.90;;;3.50;;
66342;SDS011;53144;51.524;5.080;2022-11-15T17:32:53;4.28;;;3.28;;
66342;SDS011;53144;51.524;5.080;2022-11-15T17:35:20;3.88;;;3.10;;
66342;SDS011;53144;51.524;5.080;2022-11-15T17:37:48;6.07;;;3.22;;
66342;SDS011;53144;51.524;5.080;2022-11-15T17:42:40;4.95;;;3.38;;
66342;SDS011;53144;51.524;5.080;2022-11-15T17:45:07;7.60;;;4.07;;
66342;SDS011;53144;51.524;5.080;2022-11-15T17:47:37;5.20;;;3.80;;
66342;SDS011;53144;51.524;5.080;2022-11-15T17:50:14;5.75;;;3.83;;
66342;SDS011;53144;51.524;5.080;2022-11-15T17:52:47;8.98;;;6.55;;
66342;SDS011;53144;51.524;5.080;2022-11-15T17:55:13;8.93;;;4.63;;
66342;SDS011;53144;51.524;5.080;2022-11-15T18:00:09;5.20;;;3.90;;
66342;SDS011;53144;51.524;5.080;2022-11-15T18:05:47;6.43;;;4.07;;
66342;SDS011;53144;51.524;5.080;2022-11-15T18:08:39;6.55;;;4.30;;
66342;SDS011;53144;51.524;5.080;2022-11-15T18:11:26;6.57;;;5.15;;
66342;SDS011;53144;51.524;5.080;2022-11-15T18:14:20;5.55;;;4.78;;
66342;SDS011;53144;51.524;5.080;2022-11-15T18:16:53;6.72;;;3.95;;
66342;SDS011;53144;51.524;5.080;2022-11-15T18:19:19;5.28;;;4.18;;
66342;SDS011;53144;51.524;5.080;2022-11-15T18:24:53;6.50;;;4.43;;
66342;SDS011;53144;51.524;5.080;2022-11-15T18:36:25;6.03;;;4.82;;
66342;SDS011;53144;51.524;5.080;2022-11-15T18:38:53;5.30;;;4.80;;
66342;SDS011;53144;51.524;5.080;2022-11-15T18:41:19;10.50;;;7.10;;
66342;SDS011;53144;51.524;5.080;2022-11-15T18:43:48;7.57;;;5.38;;
66342;SDS011;53144;51.524;5.080;2022-11-15T18:46:18;8.77;;;5.88;;
66342;SDS011;53144;51.524;5.080;2022-11-15T18:48:53;5.90;;;5.30;;
66342;SDS011;53144;51.524;5.080;2022-11-15T18:51:20;6.97;;;5.40;;
66342;SDS011;53144;51.524;5.080;2022-11-15T18:53:47;6.50;;;5.28;;
66342;SDS011;53144;51.524;5.080;2022-11-15T18:56:17;7.25;;;5.50;;
66342;SDS011;53144;51.524;5.080;2022-11-15T18:58:47;7.80;;;5.80;;
66342;SDS011;53144;51.524;5.080;2022-11-15T19:01:36;8.98;;;6.25;;
66342;SDS011;53144;51.524;5.080;2022-11-15T19:04:26;7.65;;;6.18;;
66342;SDS011;53144;51.524;5.080;2022-11-15T19:09:22;9.15;;;5.90;;
66342;SDS011;53144;51.524;5.080;2022-11-15T19:12:17;9.07;;;6.38;;
66342;SDS011;53144;51.524;5.080;2022-11-15T19:14:42;8.13;;;6.38;;
66342;SDS011;53144;51.524;5.080;2022-11-15T19:19:39;9.90;;;5.53;;
66342;SDS011;53144;51.524;5.080;2022-11-15T19:24:50;9.50;;;7.50;;
66342;SDS011;53144;51.524;5.080;2022-11-15T19:27:18;9.98;;;7.22;;
66342;SDS011;53144;51.524;5.080;2022-11-15T19:33:00;10.00;;;7.47;;
66342;SDS011;53144;51.524;5.080;2022-11-15T19:35:38;12.50;;;9.50;;
66342;SDS011;53144;51.524;5.080;2022-11-15T19:38:07;13.98;;;10.82;;
66342;SDS011;53144;51.524;5.080;2022-11-15T19:40:35;13.55;;;9.68;;
66342;SDS011;53144;51.524;5.080;2022-11-15T19:45:28;11.60;;;8.98;;
66342;SDS011;53144;51.524;5.080;2022-11-15T19:47:57;8.88;;;7.97;;
66342;SDS011;53144;51.524;5.080;2022-11-15T19:50:32;10.88;;;9.55;;
66342;SDS011;53144;51.524;5.080;2022-11-15T19:55:52;10.25;;;8.85;;
66342;SDS011;53144;51.524;5.080;2022-11-15T19:58:32;11.40;;;9.25;;
66342;SDS011;53144;51.524;5.080;2022-11-15T20:03:29;9.93;;;8.85;;
66342;SDS011;53144;51.524;5.080;2022-11-15T20:06:03;10.25;;;8.30;;
66342;SDS011;53144;51.524;5.080;2022-11-15T20:08:31;12.65;;;8.65;;
66342;SDS011;53144;51.524;5.080;2022-11-15T20:11:03;12.27;;;9.40;;
66342;SDS011;53144;51.524;5.080;2022-11-15T20:13:35;9.98;;;7.97;;
66342;SDS011;53144;51.524;5.080;2022-11-15T20:16:00;12.55;;;8.55;;
66342;SDS011;53144;51.524;5.080;2022-11-15T20:20:52;10.55;;;7.47;;
66342;SDS011;53144;51.524;5.080;2022-11-15T20:23:20;8.45;;;7.40;;
66342;SDS011;53144;51.524;5.080;2022-11-15T20:25:49;11.43;;;8.25;;
66342;SDS011;53144;51.524;5.080;2022-11-15T20:28:22;9.10;;;8.20;;
66342;SDS011;53144;51.524;5.080;2022-11-15T20:30:50;9.32;;;8.43;;
66342;SDS011;53144;51.524;5.080;2022-11-15T20:33:17;10.30;;;8.55;;
66342;SDS011;53144;51.524;5.080;2022-11-15T20:38:19;9.65;;;8.68;;
66342;SDS011;53144;51.524;5.080;2022-11-15T20:40:48;8.85;;;7.90;;
66342;SDS011;53144;51.524;5.080;2022-11-15T20:43:16;12.73;;;8.63;;
66342;SDS011;53144;51.524;5.080;2022-11-15T20:45:48;9.75;;;8.07;;
66342;SDS011;53144;51.524;5.080;2022-11-15T20:48:20;10.15;;;8.77;;
66342;SDS011;53144;51.524;5.080;2022-11-15T20:50:48;9.50;;;7.93;;
66342;SDS011;53144;51.524;5.080;2022-11-15T20:53:30;8.57;;;7.70;;
66342;SDS011;53144;51.524;5.080;2022-11-15T20:55:55;8.50;;;7.60;;
66342;SDS011;53144;51.524;5.080;2022-11-15T20:58:35;9.27;;;8.30;;
66342;SDS011;53144;51.524;5.080;2022-11-15T21:01:14;9.20;;;8.30;;
66342;SDS011;53144;51.524;5.080;2022-11-15T21:03:47;9.30;;;7.78;;
66342;SDS011;53144;51.524;5.080;2022-11-15T21:08:45;8.93;;;7.88;;
66342;SDS011;53144;51.524;5.080;2022-11-15T21:11:33;9.60;;;8.60;;
66342;SDS011;53144;51.524;5.080;2022-11-15T21:16:49;8.70;;;7.68;;
66342;SDS011;53144;51.524;5.080;2022-11-15T21:21:51;10.50;;;7.80;;
66342;SDS011;53144;51.524;5.080;2022-11-15T21:24:25;9.02;;;8.13;;
66342;SDS011;53144;51.524;5.080;2022-11-15T21:29:20;10.50;;;8.43;;
66342;SDS011;53144;51.524;5.080;2022-11-15T21:34:38;11.55;;;8.45;;
66342;SDS011;53144;51.524;5.080;2022-11-15T21:37:16;10.25;;;8.70;;
66342;SDS011;53144;51.524;5.080;2022-11-15T21:39:53;12.48;;;9.57;;
66342;SDS011;53144;51.524;5.080;2022-11-15T21:45:22;11.05;;;9.27;;
66342;SDS011;53144;51.524;5.080;2022-11-15T21:51:46;10.07;;;9.07;;
66342;SDS011;53144;51.524;5.080;2022-11-15T21:54:15;10.52;;;8.50;;
66342;SDS011;53144;51.524;5.080;2022-11-15T21:56:44;9.65;;;8.55;;
66342;SDS011;53144;51.524;5.080;2022-11-15T21:59:18;10.57;;;8.68;;
66342;SDS011;53144;51.524;5.080;2022-11-15T22:01:43;12.30;;;9.05;;
66342;SDS011;53144;51.524;5.080;2022-11-15T22:04:35;10.10;;;8.85;;
66342;SDS011;53144;51.524;5.080;2022-11-15T22:07:01;9.90;;;8.55;;
66342;SDS011;53144;51.524;5.080;2022-11-15T22:11:52;9.35;;;8.02;;
66342;SDS011;53144;51.524;5.080;2022-11-15T22:16:43;9.35;;;8.30;;
66342;SDS011;53144;51.524;5.080;2022-11-15T22:19:11;10.93;;;8.43;;
66342;SDS011;53144;51.524;5.080;2022-11-15T22:24:04;9.38;;;7.80;;
66342;SDS011;53144;51.524;5.080;2022-11-15T22:26:30;9.48;;;8.07;;
66342;SDS011;53144;51.524;5.080;2022-11-15T22:29:01;11.43;;;8.80;;
66342;SDS011;53144;51.524;5.080;2022-11-15T22:33:52;10.88;;;7.72;;
66342;SDS011;53144;51.524;5.080;2022-11-15T22:38:43;10.55;;;8.13;;
66342;SDS011;53144;51.524;5.080;2022-11-15T22:43:37;9.43;;;8.43;;
66342;SDS011;53144;51.524;5.080;2022-11-15T22:46:04;9.75;;;8.75;;
66342;SDS011;53144;51.524;5.080;2022-11-15T22:51:00;9.85;;;8.68;;
66342;SDS011;53144;51.524;5.080;2022-11-15T22:53:28;11.05;;;9.82;;
66342;SDS011;53144;51.524;5.080;2022-11-15T22:55:56;11.32;;;8.60;;
66342;SDS011;53144;51.524;5.080;2022-11-15T22:58:23;11.50;;;8.77;;
66342;SDS011;53144;51.524;5.080;2022-11-15T23:00:50;9.38;;;8.48;;
66342;SDS011;53144;51.524;5.080;2022-11-15T23:03:17;14.15;;;9.15;;
66342;SDS011;53144;51.524;5.080;2022-11-15T23:05:44;10.90;;;9.13;;
66342;SDS011;53144;51.524;5.080;2022-11-15T23:10:36;10.18;;;8.40;;
66342;SDS011;53144;51.524;5.080;2022-11-15T23:13:21;11.57;;;8.73;;
66342;SDS011;53144;51.524;5.080;2022-11-15T23:18:32;9.43;;;8.30;;
66342;SDS011;53144;51.524;5.080;2022-11-15T23:20:58;10.85;;;7.88;;
66342;SDS011;53144;51.524;5.080;2022-11-15T23:23:31;10.20;;;8.90;;
66342;SDS011;53144;51.524;5.080;2022-11-15T23:28:23;12.52;;;8.88;;
66342;SDS011;53144;51.524;5.080;2022-11-15T23:33:34;9.63;;;8.63;;
66342;SDS011;53144;51.524;5.080;2022-11-15T23:36:18;11.00;;;9.20;;
66342;SDS011;53144;51.524;5.080;2022-11-15T23:41:12;10.90;;;8.82;;
66342;SDS011;53144;51.524;5.080;2022-11-15T23:46:03;10.82;;;8.65;;
66342;SDS011;53144;51.524;5.080;2022-11-15T23:50:56;9.23;;;8.00;;
66342;SDS011;53144;51.524;5.080;2022-11-15T23:55:56;11.77;;;9.18;;
66342;SDS011;53144;51.524;5.080;2022-11-15T23:58:25;10.68;;;9.20;;
